Airfield :
LOGIN :

Register | Disclaimer

   EN    FR    IT 

 










Legend :    VFR   Marginal VFR   IFR   Intensive IFR   Very Intensive IFR
Visi :
Ceiling :
>= 8 km
>= 3000ft
5 to 8 km
1000 to 3000 ft
1500m to 5 km
500 to 1000 ft
800 to 1500m
200 to 500 ft
< 800m
< 200 ft
Symbols :   Thunderstorms  Fog  Heavy snow  Heavy precipitations  Wind > 20 kt
SIGMETs :     Misc.  Thunderstorms  Icing  Turbulence  Mountain Waves  Volcanic Ashes







- Airport Elevation : 7 ft
- IATA code : XHE
- Download approach charts


LFTH - Hyeres

CURRENT METAR :
  • 162200Z AUTO 33012KT 290V360 CAVOK 08/M04 Q1014 TEMPO 35017G27KT

EXPIRED METARs :
  • 162130Z AUTO 33011KT 290V360 CAVOK 08/M04 Q1014 TEMPO 35017G27KT
  • 162100Z AUTO 33011KT 280V360 CAVOK 08/M05 Q1014 TEMPO 35017G27KT
  • 162030Z AUTO 34010KT 290V030 CAVOK 08/M05 Q1014 TEMPO 35017G27KT
  • 162000Z AUTO 33010KT 280V020 CAVOK 08/M04 Q1013 TEMPO 35017G27KT
  • 161930Z AUTO 33012KT 290V360 CAVOK 08/M04 Q1013 TEMPO 35017G27KT

TAF TAF LFTH
Valid from the 16 at 21:00 until the 17 at 21:00 UTC


162000Z 1621/1721 32015KT CAVOK
TEMPO 1621/1624 35017G27KT
BECMG 1704/1706 35017G27KT
TEMPO 1706/1711 35013KT
BECMG 1711/1713 34012KT
No reported NOTAMs for that airfield.
1 SIGMET reported for the Marseille FIR (LFMM) :
 
Severe turbulence
LFMM SIGMET 7 VALID 162000/162300 LFPW
LFMM MARSEILLE FIR/UIR SEV TURB FCST WI N4115 E00430 - N4200 E00430 - N4215 E00230 - N4330 E00245 - N4415 E00330 - N4415 E00515 - N4100 E00715 - N4115 E00430 SFC/FL050 STNR NC=



MET'MAP, your aeronautical weather chart ! - Copyright ORBIFLY December 2007 - Disclaimer

ORBIFLY MET'MAP TEAM :

Programming & Development : Alexandra Zaïnal
Concept & Development : Baudouin d'Aumeries
Co-Development & Prog : Marc-Olivier Méhu
Technical & hardware support : Manuel Goepfert

Contact : metmap@orbifly.com




SOURCES & CREDITS :

   NOAA